sensor_id;sensor_type;location;lat;lon;timestamp;P1;durP1;ratioP1;P2;durP2;ratioP2
1106;SDS011;540;49.448;8.612;2023-02-15T00:02:06;54.70;;;20.17;;
1106;SDS011;540;49.448;8.612;2023-02-15T00:04:34;58.15;;;21.67;;
1106;SDS011;540;49.448;8.612;2023-02-15T00:07:14;51.90;;;18.08;;
1106;SDS011;540;49.448;8.612;2023-02-15T00:09:43;49.90;;;17.48;;
1106;SDS011;540;49.448;8.612;2023-02-15T00:12:13;51.95;;;17.98;;
1106;SDS011;540;49.448;8.612;2023-02-15T00:14:43;62.00;;;21.58;;
1106;SDS011;540;49.448;8.612;2023-02-15T00:17:11;70.18;;;20.52;;
1106;SDS011;540;49.448;8.612;2023-02-15T00:19:38;56.85;;;20.08;;
1106;SDS011;540;49.448;8.612;2023-02-15T00:22:07;62.17;;;20.15;;
1106;SDS011;540;49.448;8.612;2023-02-15T00:24:35;63.67;;;22.08;;
1106;SDS011;540;49.448;8.612;2023-02-15T00:27:02;62.10;;;21.55;;
1106;SDS011;540;49.448;8.612;2023-02-15T00:29:30;67.97;;;23.92;;
1106;SDS011;540;49.448;8.612;2023-02-15T00:32:00;62.08;;;21.02;;
1106;SDS011;540;49.448;8.612;2023-02-15T00:34:27;68.60;;;22.40;;
1106;SDS011;540;49.448;8.612;2023-02-15T00:36:55;60.97;;;20.98;;
1106;SDS011;540;49.448;8.612;2023-02-15T00:39:23;58.70;;;18.10;;
1106;SDS011;540;49.448;8.612;2023-02-15T00:41:51;52.05;;;20.25;;
1106;SDS011;540;49.448;8.612;2023-02-15T00:44:19;59.13;;;18.63;;
1106;SDS011;540;49.448;8.612;2023-02-15T00:46:47;57.90;;;18.92;;
1106;SDS011;540;49.448;8.612;2023-02-15T00:49:16;57.85;;;17.90;;
1106;SDS011;540;49.448;8.612;2023-02-15T00:51:43;64.90;;;20.27;;
1106;SDS011;540;49.448;8.612;2023-02-15T00:54:11;59.05;;;21.35;;
1106;SDS011;540;49.448;8.612;2023-02-15T00:56:39;66.57;;;21.65;;
1106;SDS011;540;49.448;8.612;2023-02-15T00:59:07;57.97;;;19.77;;
1106;SDS011;540;49.448;8.612;2023-02-15T01:01:35;56.03;;;20.45;;
1106;SDS011;540;49.448;8.612;2023-02-15T01:04:03;53.88;;;17.33;;
1106;SDS011;540;49.448;8.612;2023-02-15T01:06:32;54.35;;;20.02;;
1106;SDS011;540;49.448;8.612;2023-02-15T01:09:00;51.63;;;17.73;;
1106;SDS011;540;49.448;8.612;2023-02-15T01:11:28;43.00;;;17.67;;
1106;SDS011;540;49.448;8.612;2023-02-15T01:13:56;49.95;;;16.70;;
1106;SDS011;540;49.448;8.612;2023-02-15T01:16:26;58.50;;;19.92;;
1106;SDS011;540;49.448;8.612;2023-02-15T01:18:55;46.78;;;17.52;;
1106;SDS011;540;49.448;8.612;2023-02-15T01:21:24;48.72;;;17.77;;
1106;SDS011;540;49.448;8.612;2023-02-15T01:23:54;51.40;;;18.33;;
1106;SDS011;540;49.448;8.612;2023-02-15T01:26:21;50.20;;;18.80;;
1106;SDS011;540;49.448;8.612;2023-02-15T01:28:49;48.60;;;17.45;;
1106;SDS011;540;49.448;8.612;2023-02-15T01:31:18;50.15;;;17.35;;
1106;SDS011;540;49.448;8.612;2023-02-15T01:33:47;47.67;;;19.20;;
1106;SDS011;540;49.448;8.612;2023-02-15T01:36:15;47.28;;;17.15;;
1106;SDS011;540;49.448;8.612;2023-02-15T01:38:43;54.85;;;18.88;;
1106;SDS011;540;49.448;8.612;2023-02-15T01:41:13;48.80;;;17.38;;
1106;SDS011;540;49.448;8.612;2023-02-15T01:43:50;46.45;;;16.95;;
1106;SDS011;540;49.448;8.612;2023-02-15T01:46:19;53.30;;;18.63;;
1106;SDS011;540;49.448;8.612;2023-02-15T01:48:52;61.22;;;20.40;;
1106;SDS011;540;49.448;8.612;2023-02-15T01:51:24;45.75;;;16.55;;
1106;SDS011;540;49.448;8.612;2023-02-15T01:53:57;51.38;;;18.45;;
1106;SDS011;540;49.448;8.612;2023-02-15T01:56:30;51.15;;;17.65;;
1106;SDS011;540;49.448;8.612;2023-02-15T01:59:02;45.78;;;17.55;;
1106;SDS011;540;49.448;8.612;2023-02-15T02:01:33;50.92;;;19.15;;
1106;SDS011;540;49.448;8.612;2023-02-15T02:04:02;45.10;;;17.15;;
1106;SDS011;540;49.448;8.612;2023-02-15T02:06:36;49.35;;;17.27;;
1106;SDS011;540;49.448;8.612;2023-02-15T02:09:05;49.95;;;18.27;;
1106;SDS011;540;49.448;8.612;2023-02-15T02:11:34;44.65;;;16.27;;
1106;SDS011;540;49.448;8.612;2023-02-15T02:14:02;50.72;;;18.45;;
1106;SDS011;540;49.448;8.612;2023-02-15T02:16:32;47.17;;;17.23;;
1106;SDS011;540;49.448;8.612;2023-02-15T02:19:17;49.75;;;19.90;;
1106;SDS011;540;49.448;8.612;2023-02-15T02:28:38;42.58;;;15.65;;
1106;SDS011;540;49.448;8.612;2023-02-15T02:31:26;43.53;;;15.60;;
1106;SDS011;540;49.448;8.612;2023-02-15T02:34:08;46.88;;;17.90;;
1106;SDS011;540;49.448;8.612;2023-02-15T02:36:42;46.97;;;15.57;;
1106;SDS011;540;49.448;8.612;2023-02-15T02:39:21;53.42;;;18.65;;
1106;SDS011;540;49.448;8.612;2023-02-15T02:41:55;37.53;;;14.68;;
1106;SDS011;540;49.448;8.612;2023-02-15T02:44:29;47.53;;;16.45;;
1106;SDS011;540;49.448;8.612;2023-02-15T02:47:02;46.35;;;17.55;;
1106;SDS011;540;49.448;8.612;2023-02-15T02:49:38;48.05;;;17.38;;
1106;SDS011;540;49.448;8.612;2023-02-15T02:55:16;41.45;;;16.45;;
1106;SDS011;540;49.448;8.612;2023-02-15T02:57:50;46.38;;;18.20;;
1106;SDS011;540;49.448;8.612;2023-02-15T03:00:21;44.08;;;16.42;;
1106;SDS011;540;49.448;8.612;2023-02-15T03:02:52;43.53;;;17.60;;
1106;SDS011;540;49.448;8.612;2023-02-15T03:05:26;40.28;;;16.27;;
1106;SDS011;540;49.448;8.612;2023-02-15T03:07:56;46.17;;;17.88;;
1106;SDS011;540;49.448;8.612;2023-02-15T03:10:27;40.42;;;16.48;;
1106;SDS011;540;49.448;8.612;2023-02-15T03:12:56;40.83;;;14.55;;
1106;SDS011;540;49.448;8.612;2023-02-15T03:15:25;45.38;;;17.95;;
1106;SDS011;540;49.448;8.612;2023-02-15T03:18:20;42.25;;;15.80;;
1106;SDS011;540;49.448;8.612;2023-02-15T03:20:53;43.33;;;16.98;;
1106;SDS011;540;49.448;8.612;2023-02-15T03:23:24;49.67;;;18.52;;
1106;SDS011;540;49.448;8.612;2023-02-15T03:25:55;44.78;;;16.67;;
1106;SDS011;540;49.448;8.612;2023-02-15T03:28:27;51.78;;;18.85;;
1106;SDS011;540;49.448;8.612;2023-02-15T03:30:59;50.55;;;19.10;;
1106;SDS011;540;49.448;8.612;2023-02-15T03:33:32;51.65;;;18.15;;
1106;SDS011;540;49.448;8.612;2023-02-15T03:36:04;58.40;;;18.02;;
1106;SDS011;540;49.448;8.612;2023-02-15T03:38:40;55.88;;;18.02;;
1106;SDS011;540;49.448;8.612;2023-02-15T03:41:14;44.85;;;17.15;;
1106;SDS011;540;49.448;8.612;2023-02-15T03:43:45;54.88;;;18.90;;
1106;SDS011;540;49.448;8.612;2023-02-15T03:46:20;48.15;;;18.73;;
1106;SDS011;540;49.448;8.612;2023-02-15T03:48:54;60.20;;;20.60;;
1106;SDS011;540;49.448;8.612;2023-02-15T03:51:28;62.53;;;20.15;;
1106;SDS011;540;49.448;8.612;2023-02-15T03:54:01;49.27;;;18.30;;
1106;SDS011;540;49.448;8.612;2023-02-15T03:56:31;50.63;;;18.73;;
1106;SDS011;540;49.448;8.612;2023-02-15T03:59:01;57.13;;;17.95;;
1106;SDS011;540;49.448;8.612;2023-02-15T04:01:48;51.77;;;18.90;;
1106;SDS011;540;49.448;8.612;2023-02-15T04:04:26;59.70;;;20.48;;
1106;SDS011;540;49.448;8.612;2023-02-15T04:07:00;48.78;;;17.40;;
1106;SDS011;540;49.448;8.612;2023-02-15T04:09:29;55.30;;;19.65;;
1106;SDS011;540;49.448;8.612;2023-02-15T04:12:15;61.72;;;17.83;;
1106;SDS011;540;49.448;8.612;2023-02-15T04:14:43;56.03;;;19.05;;
1106;SDS011;540;49.448;8.612;2023-02-15T04:17:28;47.35;;;17.90;;
1106;SDS011;540;49.448;8.612;2023-02-15T04:19:56;55.88;;;18.50;;
1106;SDS011;540;49.448;8.612;2023-02-15T04:22:43;48.33;;;17.58;;
1106;SDS011;540;49.448;8.612;2023-02-15T04:25:28;43.00;;;15.90;;
1106;SDS011;540;49.448;8.612;2023-02-15T04:27:56;39.80;;;15.05;;
1106;SDS011;540;49.448;8.612;2023-02-15T04:30:24;32.33;;;13.95;;
1106;SDS011;540;49.448;8.612;2023-02-15T04:32:53;36.22;;;14.60;;
1106;SDS011;540;49.448;8.612;2023-02-15T04:35:21;39.70;;;14.98;;
1106;SDS011;540;49.448;8.612;2023-02-15T04:37:50;40.88;;;15.48;;
1106;SDS011;540;49.448;8.612;2023-02-15T04:40:18;37.83;;;14.35;;
1106;SDS011;540;49.448;8.612;2023-02-15T04:42:47;38.67;;;15.05;;
1106;SDS011;540;49.448;8.612;2023-02-15T04:45:15;33.88;;;15.80;;
1106;SDS011;540;49.448;8.612;2023-02-15T04:47:43;44.13;;;15.38;;
1106;SDS011;540;49.448;8.612;2023-02-15T04:50:11;36.50;;;14.57;;
1106;SDS011;540;49.448;8.612;2023-02-15T04:52:39;38.72;;;15.57;;
1106;SDS011;540;49.448;8.612;2023-02-15T04:55:08;37.20;;;14.40;;
1106;SDS011;540;49.448;8.612;2023-02-15T04:57:36;34.67;;;13.75;;
1106;SDS011;540;49.448;8.612;2023-02-15T05:00:04;42.35;;;15.07;;
1106;SDS011;540;49.448;8.612;2023-02-15T05:02:34;36.80;;;14.68;;
1106;SDS011;540;49.448;8.612;2023-02-15T05:05:02;38.72;;;14.68;;
1106;SDS011;540;49.448;8.612;2023-02-15T05:07:30;35.25;;;13.52;;
1106;SDS011;540;49.448;8.612;2023-02-15T05:09:58;37.50;;;14.52;;
1106;SDS011;540;49.448;8.612;2023-02-15T05:12:27;37.42;;;15.23;;
1106;SDS011;540;49.448;8.612;2023-02-15T05:14:54;38.58;;;14.43;;
1106;SDS011;540;49.448;8.612;2023-02-15T05:17:22;38.90;;;14.93;;
1106;SDS011;540;49.448;8.612;2023-02-15T05:19:50;36.80;;;13.05;;
1106;SDS011;540;49.448;8.612;2023-02-15T05:22:18;34.72;;;13.55;;
1106;SDS011;540;49.448;8.612;2023-02-15T05:24:46;37.85;;;16.02;;
1106;SDS011;540;49.448;8.612;2023-02-15T05:27:32;36.65;;;13.23;;
1106;SDS011;540;49.448;8.612;2023-02-15T05:32:45;28.45;;;12.60;;
1106;SDS011;540;49.448;8.612;2023-02-15T05:35:14;31.77;;;13.48;;
1106;SDS011;540;49.448;8.612;2023-02-15T05:37:42;32.28;;;13.32;;
1106;SDS011;540;49.448;8.612;2023-02-15T05:40:10;28.25;;;11.80;;
1106;SDS011;540;49.448;8.612;2023-02-15T05:42:40;29.88;;;12.02;;
1106;SDS011;540;49.448;8.612;2023-02-15T05:45:07;32.10;;;13.05;;
1106;SDS011;540;49.448;8.612;2023-02-15T05:47:36;27.05;;;12.32;;
1106;SDS011;540;49.448;8.612;2023-02-15T05:50:04;30.55;;;12.95;;
1106;SDS011;540;49.448;8.612;2023-02-15T05:52:33;26.02;;;10.88;;
1106;SDS011;540;49.448;8.612;2023-02-15T05:55:01;30.40;;;12.02;;
1106;SDS011;540;49.448;8.612;2023-02-15T05:57:30;27.05;;;10.85;;
1106;SDS011;540;49.448;8.612;2023-02-15T06:00:00;30.05;;;12.00;;
1106;SDS011;540;49.448;8.612;2023-02-15T06:02:32;31.50;;;12.20;;
1106;SDS011;540;49.448;8.612;2023-02-15T06:05:01;29.23;;;10.98;;
1106;SDS011;540;49.448;8.612;2023-02-15T06:07:28;22.67;;;11.52;;
1106;SDS011;540;49.448;8.612;2023-02-15T06:09:56;26.42;;;11.77;;
1106;SDS011;540;49.448;8.612;2023-02-15T06:12:24;28.55;;;12.32;;
1106;SDS011;540;49.448;8.612;2023-02-15T06:14:52;28.70;;;11.48;;
1106;SDS011;540;49.448;8.612;2023-02-15T06:17:21;26.75;;;12.38;;
1106;SDS011;540;49.448;8.612;2023-02-15T06:19:49;27.00;;;12.70;;
1106;SDS011;540;49.448;8.612;2023-02-15T06:22:16;31.38;;;12.13;;
1106;SDS011;540;49.448;8.612;2023-02-15T06:24:44;30.23;;;12.48;;
1106;SDS011;540;49.448;8.612;2023-02-15T06:27:12;28.65;;;11.88;;
1106;SDS011;540;49.448;8.612;2023-02-15T06:29:40;32.35;;;11.88;;
1106;SDS011;540;49.448;8.612;2023-02-15T06:32:08;28.85;;;12.70;;
1106;SDS011;540;49.448;8.612;2023-02-15T06:34:39;47.38;;;18.98;;
1106;SDS011;540;49.448;8.612;2023-02-15T06:37:07;46.80;;;17.17;;
1106;SDS011;540;49.448;8.612;2023-02-15T06:39:35;34.95;;;14.23;;
1106;SDS011;540;49.448;8.612;2023-02-15T06:42:03;29.77;;;11.70;;
1106;SDS011;540;49.448;8.612;2023-02-15T06:44:31;28.75;;;14.55;;
1106;SDS011;540;49.448;8.612;2023-02-15T06:46:59;35.30;;;15.02;;
1106;SDS011;540;49.448;8.612;2023-02-15T06:49:26;31.35;;;15.45;;
1106;SDS011;540;49.448;8.612;2023-02-15T06:51:55;36.83;;;13.20;;
1106;SDS011;540;49.448;8.612;2023-02-15T06:54:23;38.10;;;15.73;;
1106;SDS011;540;49.448;8.612;2023-02-15T06:56:51;39.42;;;15.80;;
1106;SDS011;540;49.448;8.612;2023-02-15T06:59:19;36.72;;;17.50;;
1106;SDS011;540;49.448;8.612;2023-02-15T07:01:47;38.38;;;13.60;;
1106;SDS011;540;49.448;8.612;2023-02-15T07:04:15;43.00;;;16.50;;
1106;SDS011;540;49.448;8.612;2023-02-15T07:06:43;43.83;;;15.48;;
1106;SDS011;540;49.448;8.612;2023-02-15T07:09:13;40.45;;;15.30;;
1106;SDS011;540;49.448;8.612;2023-02-15T07:11:41;38.67;;;14.50;;
1106;SDS011;540;49.448;8.612;2023-02-15T07:14:26;41.00;;;14.25;;
1106;SDS011;540;49.448;8.612;2023-02-15T07:16:54;38.45;;;14.02;;
1106;SDS011;540;49.448;8.612;2023-02-15T07:19:22;38.10;;;16.17;;
1106;SDS011;540;49.448;8.612;2023-02-15T07:21:49;45.47;;;15.20;;
1106;SDS011;540;49.448;8.612;2023-02-15T07:24:19;37.35;;;13.88;;
1106;SDS011;540;49.448;8.612;2023-02-15T07:26:46;41.72;;;14.00;;
1106;SDS011;540;49.448;8.612;2023-02-15T07:29:14;38.40;;;15.98;;
1106;SDS011;540;49.448;8.612;2023-02-15T07:31:42;43.95;;;15.98;;
1106;SDS011;540;49.448;8.612;2023-02-15T07:34:11;44.72;;;15.60;;
1106;SDS011;540;49.448;8.612;2023-02-15T07:36:39;46.53;;;19.50;;
1106;SDS011;540;49.448;8.612;2023-02-15T07:39:06;48.15;;;18.75;;
1106;SDS011;540;49.448;8.612;2023-02-15T07:41:36;57.63;;;20.65;;
1106;SDS011;540;49.448;8.612;2023-02-15T07:44:04;52.40;;;19.60;;
1106;SDS011;540;49.448;8.612;2023-02-15T07:46:31;48.53;;;19.10;;
1106;SDS011;540;49.448;8.612;2023-02-15T07:48:59;51.17;;;18.02;;
1106;SDS011;540;49.448;8.612;2023-02-15T07:51:27;48.47;;;18.95;;
1106;SDS011;540;49.448;8.612;2023-02-15T07:53:55;45.35;;;19.48;;
1106;SDS011;540;49.448;8.612;2023-02-15T07:56:22;53.28;;;17.10;;
1106;SDS011;540;49.448;8.612;2023-02-15T07:58:52;54.80;;;19.90;;
1106;SDS011;540;49.448;8.612;2023-02-15T08:01:22;54.78;;;20.38;;
1106;SDS011;540;49.448;8.612;2023-02-15T08:03:51;54.72;;;19.55;;
1106;SDS011;540;49.448;8.612;2023-02-15T08:06:19;47.10;;;18.85;;
1106;SDS011;540;49.448;8.612;2023-02-15T08:08:48;47.50;;;18.65;;
1106;SDS011;540;49.448;8.612;2023-02-15T08:11:17;63.67;;;22.67;;
1106;SDS011;540;49.448;8.612;2023-02-15T08:13:54;57.42;;;20.67;;
1106;SDS011;540;49.448;8.612;2023-02-15T08:16:27;47.63;;;18.98;;
1106;SDS011;540;49.448;8.612;2023-02-15T08:18:57;46.97;;;19.20;;
1106;SDS011;540;49.448;8.612;2023-02-15T08:21:26;55.03;;;20.55;;
1106;SDS011;540;49.448;8.612;2023-02-15T08:23:55;46.00;;;17.90;;
1106;SDS011;540;49.448;8.612;2023-02-15T08:26:23;54.00;;;20.10;;
1106;SDS011;540;49.448;8.612;2023-02-15T08:28:54;52.83;;;19.63;;
1106;SDS011;540;49.448;8.612;2023-02-15T08:31:22;52.60;;;18.58;;
1106;SDS011;540;49.448;8.612;2023-02-15T08:33:51;50.35;;;18.25;;
1106;SDS011;540;49.448;8.612;2023-02-15T08:36:21;44.88;;;17.38;;
1106;SDS011;540;49.448;8.612;2023-02-15T08:38:50;53.33;;;20.23;;
1106;SDS011;540;49.448;8.612;2023-02-15T08:41:19;40.15;;;17.65;;
1106;SDS011;540;49.448;8.612;2023-02-15T08:43:49;47.55;;;19.02;;
1106;SDS011;540;49.448;8.612;2023-02-15T08:46:21;46.50;;;18.13;;
1106;SDS011;540;49.448;8.612;2023-02-15T08:48:50;47.53;;;19.02;;
1106;SDS011;540;49.448;8.612;2023-02-15T08:51:19;53.63;;;19.42;;
1106;SDS011;540;49.448;8.612;2023-02-15T08:53:49;47.92;;;17.27;;
1106;SDS011;540;49.448;8.612;2023-02-15T08:56:18;45.63;;;18.02;;
1106;SDS011;540;49.448;8.612;2023-02-15T08:58:47;41.65;;;17.35;;
1106;SDS011;540;49.448;8.612;2023-02-15T09:01:16;45.22;;;17.00;;
1106;SDS011;540;49.448;8.612;2023-02-15T09:03:50;45.95;;;19.05;;
1106;SDS011;540;49.448;8.612;2023-02-15T09:06:24;45.70;;;16.95;;
1106;SDS011;540;49.448;8.612;2023-02-15T09:08:54;38.85;;;16.70;;
1106;SDS011;540;49.448;8.612;2023-02-15T09:11:25;40.92;;;16.83;;
1106;SDS011;540;49.448;8.612;2023-02-15T09:13:57;44.53;;;19.38;;
1106;SDS011;540;49.448;8.612;2023-02-15T09:16:28;51.33;;;19.50;;
1106;SDS011;540;49.448;8.612;2023-02-15T09:19:01;51.63;;;20.30;;
1106;SDS011;540;49.448;8.612;2023-02-15T09:21:33;53.35;;;20.55;;
1106;SDS011;540;49.448;8.612;2023-02-15T09:24:05;45.65;;;18.15;;
1106;SDS011;540;49.448;8.612;2023-02-15T09:26:36;55.15;;;20.58;;
1106;SDS011;540;49.448;8.612;2023-02-15T09:29:07;44.08;;;18.08;;
1106;SDS011;540;49.448;8.612;2023-02-15T09:31:38;49.20;;;19.35;;
1106;SDS011;540;49.448;8.612;2023-02-15T09:34:13;43.35;;;17.48;;
1106;SDS011;540;49.448;8.612;2023-02-15T09:36:44;54.22;;;20.08;;
1106;SDS011;540;49.448;8.612;2023-02-15T09:39:16;55.65;;;21.25;;
1106;SDS011;540;49.448;8.612;2023-02-15T09:41:52;54.42;;;20.52;;
1106;SDS011;540;49.448;8.612;2023-02-15T09:51:06;48.63;;;16.58;;
1106;SDS011;540;49.448;8.612;2023-02-15T09:53:59;41.97;;;17.08;;
1106;SDS011;540;49.448;8.612;2023-02-15T09:56:38;46.95;;;17.38;;
1106;SDS011;540;49.448;8.612;2023-02-15T09:59:11;48.38;;;18.10;;
1106;SDS011;540;49.448;8.612;2023-02-15T10:01:52;42.45;;;17.63;;
1106;SDS011;540;49.448;8.612;2023-02-15T10:04:33;48.55;;;17.17;;
1106;SDS011;540;49.448;8.612;2023-02-15T10:07:14;45.90;;;17.23;;
1106;SDS011;540;49.448;8.612;2023-02-15T10:09:58;44.35;;;17.60;;
1106;SDS011;540;49.448;8.612;2023-02-15T10:12:43;44.17;;;17.58;;
1106;SDS011;540;49.448;8.612;2023-02-15T10:15:23;47.15;;;18.63;;
1106;SDS011;540;49.448;8.612;2023-02-15T10:18:06;45.78;;;19.17;;
1106;SDS011;540;49.448;8.612;2023-02-15T10:20:47;40.95;;;17.25;;
1106;SDS011;540;49.448;8.612;2023-02-15T10:23:28;41.60;;;17.35;;
1106;SDS011;540;49.448;8.612;2023-02-15T10:26:07;44.05;;;19.17;;
1106;SDS011;540;49.448;8.612;2023-02-15T10:28:42;42.83;;;17.20;;
1106;SDS011;540;49.448;8.612;2023-02-15T10:31:18;44.25;;;18.60;;
1106;SDS011;540;49.448;8.612;2023-02-15T10:33:58;42.80;;;18.23;;
1106;SDS011;540;49.448;8.612;2023-02-15T10:36:46;41.97;;;19.40;;
1106;SDS011;540;49.448;8.612;2023-02-15T10:39:37;40.25;;;16.27;;
1106;SDS011;540;49.448;8.612;2023-02-15T10:42:14;40.45;;;17.63;;
1106;SDS011;540;49.448;8.612;2023-02-15T10:44:54;44.20;;;17.08;;
1106;SDS011;540;49.448;8.612;2023-02-15T10:47:39;40.17;;;17.15;;
1106;SDS011;540;49.448;8.612;2023-02-15T10:50:30;48.10;;;19.13;;
1106;SDS011;540;49.448;8.612;2023-02-15T10:53:10;44.03;;;20.60;;
1106;SDS011;540;49.448;8.612;2023-02-15T10:55:52;46.78;;;20.73;;
1106;SDS011;540;49.448;8.612;2023-02-15T10:58:27;42.65;;;18.10;;
1106;SDS011;540;49.448;8.612;2023-02-15T11:01:02;44.15;;;17.50;;
1106;SDS011;540;49.448;8.612;2023-02-15T11:03:46;41.75;;;18.33;;
1106;SDS011;540;49.448;8.612;2023-02-15T11:06:31;42.15;;;18.27;;
1106;SDS011;540;49.448;8.612;2023-02-15T11:09:03;43.25;;;18.35;;
1106;SDS011;540;49.448;8.612;2023-02-15T11:11:38;39.40;;;18.10;;
1106;SDS011;540;49.448;8.612;2023-02-15T11:14:09;43.35;;;18.40;;
1106;SDS011;540;49.448;8.612;2023-02-15T11:16:42;46.78;;;19.48;;
1106;SDS011;540;49.448;8.612;2023-02-15T11:19:14;41.33;;;19.02;;
1106;SDS011;540;49.448;8.612;2023-02-15T11:21:49;41.90;;;18.95;;
1106;SDS011;540;49.448;8.612;2023-02-15T11:24:20;42.20;;;18.73;;
1106;SDS011;540;49.448;8.612;2023-02-15T11:26:56;40.45;;;19.00;;
1106;SDS011;540;49.448;8.612;2023-02-15T11:29:29;39.83;;;17.52;;
1106;SDS011;540;49.448;8.612;2023-02-15T11:32:01;41.67;;;19.10;;
1106;SDS011;540;49.448;8.612;2023-02-15T11:34:40;49.10;;;19.80;;
1106;SDS011;540;49.448;8.612;2023-02-15T11:37:16;43.63;;;18.38;;
1106;SDS011;540;49.448;8.612;2023-02-15T11:39:46;40.90;;;19.55;;
1106;SDS011;540;49.448;8.612;2023-02-15T11:42:19;40.40;;;19.58;;
1106;SDS011;540;49.448;8.612;2023-02-15T11:44:52;45.78;;;19.67;;
1106;SDS011;540;49.448;8.612;2023-02-15T11:47:25;43.35;;;18.23;;
1106;SDS011;540;49.448;8.612;2023-02-15T11:49:53;43.83;;;18.38;;
1106;SDS011;540;49.448;8.612;2023-02-15T11:52:21;40.30;;;19.50;;
1106;SDS011;540;49.448;8.612;2023-02-15T11:54:49;44.70;;;18.67;;
1106;SDS011;540;49.448;8.612;2023-02-15T11:57:22;42.90;;;18.50;;
1106;SDS011;540;49.448;8.612;2023-02-15T11:59:55;44.03;;;18.85;;
1106;SDS011;540;49.448;8.612;2023-02-15T12:02:30;40.20;;;19.15;;
1106;SDS011;540;49.448;8.612;2023-02-15T12:05:01;40.13;;;18.77;;
1106;SDS011;540;49.448;8.612;2023-02-15T12:07:35;41.10;;;18.50;;
1106;SDS011;540;49.448;8.612;2023-02-15T12:10:13;45.70;;;20.48;;
1106;SDS011;540;49.448;8.612;2023-02-15T12:12:47;37.60;;;17.73;;
1106;SDS011;540;49.448;8.612;2023-02-15T12:15:15;36.38;;;18.05;;
1106;SDS011;540;49.448;8.612;2023-02-15T12:17:58;43.22;;;17.25;;
1106;SDS011;540;49.448;8.612;2023-02-15T12:20:28;36.75;;;18.48;;
1106;SDS011;540;49.448;8.612;2023-02-15T12:22:59;38.25;;;17.92;;
1106;SDS011;540;49.448;8.612;2023-02-15T12:25:30;39.65;;;18.13;;
1106;SDS011;540;49.448;8.612;2023-02-15T12:28:05;40.03;;;18.08;;
1106;SDS011;540;49.448;8.612;2023-02-15T12:30:48;42.90;;;19.05;;
1106;SDS011;540;49.448;8.612;2023-02-15T12:33:21;37.28;;;18.00;;
1106;SDS011;540;49.448;8.612;2023-02-15T12:35:54;41.38;;;20.38;;
1106;SDS011;540;49.448;8.612;2023-02-15T12:38:27;37.38;;;17.70;;
1106;SDS011;540;49.448;8.612;2023-02-15T12:40:56;44.13;;;18.70;;
1106;SDS011;540;49.448;8.612;2023-02-15T12:43:29;41.45;;;19.30;;
1106;SDS011;540;49.448;8.612;2023-02-15T12:46:12;43.38;;;18.90;;
1106;SDS011;540;49.448;8.612;2023-02-15T12:49:04;37.50;;;17.50;;
1106;SDS011;540;49.448;8.612;2023-02-15T12:54:28;35.97;;;17.60;;
1106;SDS011;540;49.448;8.612;2023-02-15T12:57:14;44.70;;;19.73;;
1106;SDS011;540;49.448;8.612;2023-02-15T12:59:53;43.85;;;19.95;;
1106;SDS011;540;49.448;8.612;2023-02-15T13:02:23;35.75;;;17.27;;
1106;SDS011;540;49.448;8.612;2023-02-15T13:04:54;41.47;;;18.70;;
1106;SDS011;540;49.448;8.612;2023-02-15T13:07:25;40.08;;;18.38;;
1106;SDS011;540;49.448;8.612;2023-02-15T13:09:58;45.35;;;19.05;;
1106;SDS011;540;49.448;8.612;2023-02-15T13:12:27;42.40;;;19.30;;
1106;SDS011;540;49.448;8.612;2023-02-15T13:14:59;42.20;;;18.58;;
1106;SDS011;540;49.448;8.612;2023-02-15T13:17:29;39.65;;;18.33;;
1106;SDS011;540;49.448;8.612;2023-02-15T13:20:01;41.67;;;18.95;;
1106;SDS011;540;49.448;8.612;2023-02-15T13:22:35;39.55;;;19.27;;
1106;SDS011;540;49.448;8.612;2023-02-15T13:25:10;40.35;;;20.48;;
1106;SDS011;540;49.448;8.612;2023-02-15T13:27:41;40.42;;;18.27;;
1106;SDS011;540;49.448;8.612;2023-02-15T13:30:16;39.00;;;18.77;;
1106;SDS011;540;49.448;8.612;2023-02-15T13:32:54;37.25;;;17.73;;
1106;SDS011;540;49.448;8.612;2023-02-15T13:35:24;42.15;;;19.10;;
1106;SDS011;540;49.448;8.612;2023-02-15T13:38:11;39.10;;;19.45;;
1106;SDS011;540;49.448;8.612;2023-02-15T13:40:53;35.35;;;18.13;;
1106;SDS011;540;49.448;8.612;2023-02-15T13:43:30;40.25;;;19.13;;
1106;SDS011;540;49.448;8.612;2023-02-15T13:46:17;37.60;;;19.00;;
1106;SDS011;540;49.448;8.612;2023-02-15T13:48:52;34.05;;;17.30;;
1106;SDS011;540;49.448;8.612;2023-02-15T13:51:34;32.35;;;17.95;;
1106;SDS011;540;49.448;8.612;2023-02-15T13:54:18;35.40;;;18.25;;
1106;SDS011;540;49.448;8.612;2023-02-15T13:57:02;33.40;;;17.88;;
1106;SDS011;540;49.448;8.612;2023-02-15T13:59:47;34.58;;;18.65;;
1106;SDS011;540;49.448;8.612;2023-02-15T14:05:41;34.65;;;18.83;;
1106;SDS011;540;49.448;8.612;2023-02-15T14:08:28;35.10;;;17.33;;
1106;SDS011;540;49.448;8.612;2023-02-15T14:11:12;35.83;;;17.13;;
1106;SDS011;540;49.448;8.612;2023-02-15T14:13:51;33.15;;;17.75;;
1106;SDS011;540;49.448;8.612;2023-02-15T14:16:41;40.08;;;20.95;;
1106;SDS011;540;49.448;8.612;2023-02-15T14:19:34;33.58;;;16.85;;
1106;SDS011;540;49.448;8.612;2023-02-15T14:22:06;37.28;;;18.05;;
1106;SDS011;540;49.448;8.612;2023-02-15T14:24:42;32.65;;;16.17;;
1106;SDS011;540;49.448;8.612;2023-02-15T14:27:16;33.28;;;17.27;;
1106;SDS011;540;49.448;8.612;2023-02-15T14:29:53;33.40;;;17.80;;
1106;SDS011;540;49.448;8.612;2023-02-15T14:32:25;33.17;;;18.05;;
1106;SDS011;540;49.448;8.612;2023-02-15T14:35:00;36.08;;;18.15;;
1106;SDS011;540;49.448;8.612;2023-02-15T14:37:33;36.05;;;17.88;;
1106;SDS011;540;49.448;8.612;2023-02-15T14:40:10;34.30;;;18.13;;
1106;SDS011;540;49.448;8.612;2023-02-15T14:43:05;36.95;;;19.08;;
1106;SDS011;540;49.448;8.612;2023-02-15T14:45:39;33.15;;;17.23;;
1106;SDS011;540;49.448;8.612;2023-02-15T14:48:24;38.17;;;18.55;;
1106;SDS011;540;49.448;8.612;2023-02-15T14:50:59;36.55;;;18.17;;
1106;SDS011;540;49.448;8.612;2023-02-15T14:53:34;38.80;;;19.42;;
1106;SDS011;540;49.448;8.612;2023-02-15T14:56:06;37.90;;;19.00;;
1106;SDS011;540;49.448;8.612;2023-02-15T14:58:56;39.92;;;19.75;;
1106;SDS011;540;49.448;8.612;2023-02-15T15:01:40;37.53;;;17.85;;
1106;SDS011;540;49.448;8.612;2023-02-15T15:04:09;42.65;;;20.50;;
1106;SDS011;540;49.448;8.612;2023-02-15T15:06:42;40.00;;;18.05;;
1106;SDS011;540;49.448;8.612;2023-02-15T15:09:11;39.45;;;19.17;;
1106;SDS011;540;49.448;8.612;2023-02-15T15:11:46;42.40;;;17.80;;
1106;SDS011;540;49.448;8.612;2023-02-15T15:17:04;39.17;;;19.88;;
1106;SDS011;540;49.448;8.612;2023-02-15T15:22:41;42.35;;;21.15;;
1106;SDS011;540;49.448;8.612;2023-02-15T15:25:11;37.47;;;19.10;;
1106;SDS011;540;49.448;8.612;2023-02-15T15:27:54;40.33;;;19.92;;
1106;SDS011;540;49.448;8.612;2023-02-15T15:36:32;37.67;;;19.67;;
1106;SDS011;540;49.448;8.612;2023-02-15T15:39:41;40.85;;;19.42;;
1106;SDS011;540;49.448;8.612;2023-02-15T15:42:31;38.63;;;18.33;;
1106;SDS011;540;49.448;8.612;2023-02-15T15:45:12;40.38;;;19.63;;
1106;SDS011;540;49.448;8.612;2023-02-15T15:48:05;43.15;;;19.67;;
1106;SDS011;540;49.448;8.612;2023-02-15T15:50:56;44.35;;;21.15;;
1106;SDS011;540;49.448;8.612;2023-02-15T15:53:26;41.60;;;19.70;;
1106;SDS011;540;49.448;8.612;2023-02-15T15:55:59;44.15;;;21.67;;
1106;SDS011;540;49.448;8.612;2023-02-15T15:58:32;44.58;;;20.33;;
1106;SDS011;540;49.448;8.612;2023-02-15T16:01:02;39.55;;;20.75;;
1106;SDS011;540;49.448;8.612;2023-02-15T16:03:34;47.78;;;22.17;;
1106;SDS011;540;49.448;8.612;2023-02-15T16:06:02;44.20;;;23.73;;
1106;SDS011;540;49.448;8.612;2023-02-15T16:08:32;42.58;;;21.75;;
1106;SDS011;540;49.448;8.612;2023-02-15T16:11:08;50.58;;;21.63;;
1106;SDS011;540;49.448;8.612;2023-02-15T16:13:39;48.67;;;23.52;;